Time;durP1;ratioP1;P1;durP2;ratioP2;P2;SDS_P1;SDS_P2;PMS_P1;PMS_P2;Temp;Humidity;BMP_temperature;BMP_pressure;BME280_temperature;BME280_humidity;BME280_pressure;Samples;Min_cycle;Max_cycle;Signal;HPM_P1;HPM_P2
2021/10/31 00:02:18;;;;;;;47.85;19.90;;;;;;;6.39;78.46;100953.84;5027131;28;20405;-76
2021/10/31 00:04:44;;;;;;;42.58;19.08;;;;;;;6.45;78.28;100959.19;5027478;28;20044;-76
2021/10/31 00:07:10;;;;;;;39.97;18.83;;;;;;;6.20;78.81;100924.03;5027300;28;20171;-76
2021/10/31 00:09:36;;;;;;;44.67;20.27;;;;;;;6.33;78.38;100958.00;5028170;28;20148;-77
2021/10/31 00:12:04;;;;;;;47.90;20.02;;;;;;;6.40;78.13;100968.53;5030427;28;20045;-76
2021/10/31 00:14:30;;;;;;;42.83;19.35;;;;;;;6.36;78.37;100966.69;5026623;28;20550;-76
2021/10/31 00:16:59;;;;;;;37.45;19.00;;;;;;;6.32;78.24;100964.00;5025927;28;20040;-76
2021/10/31 00:19:29;;;;;;;35.25;18.48;;;;;;;6.35;78.39;100975.28;5025249;28;20504;-77
2021/10/31 00:21:55;;;;;;;39.42;17.60;;;;;;;6.23;78.14;100944.78;5023949;28;20040;-76
2021/10/31 00:24:21;;;;;;;35.55;17.33;;;;;;;6.17;78.56;100938.66;5024737;28;20041;-77
2021/10/31 00:26:48;;;;;;;34.67;16.48;;;;;;;6.30;78.34;100962.22;5029688;28;20060;-77
2021/10/31 00:29:16;;;;;;;36.08;16.58;;;;;;;6.18;78.38;100939.50;5026762;28;20055;-77
2021/10/31 00:31:43;;;;;;;38.05;17.38;;;;;;;6.24;77.75;100960.38;5025219;28;20064;-76
2021/10/31 00:34:09;;;;;;;39.58;16.85;;;;;;;6.25;78.13;100972.47;5026735;28;20489;-76
2021/10/31 00:36:36;;;;;;;35.05;17.00;;;;;;;6.05;78.37;100927.09;5014956;28;20041;-76
2021/10/31 00:39:04;;;;;;;34.08;16.75;;;;;;;6.22;78.27;100959.44;5025814;28;20138;-75
2021/10/31 00:41:31;;;;;;;41.17;17.17;;;;;;;6.22;77.80;100954.28;5027958;28;20192;-75
2021/10/31 00:43:57;;;;;;;33.60;16.67;;;;;;;5.99;77.76;100918.31;5024520;28;20401;-76
2021/10/31 00:46:23;;;;;;;36.13;16.92;;;;;;;6.16;77.91;100943.75;5011639;28;21523;-77
2021/10/31 00:48:49;;;;;;;33.67;16.15;;;;;;;6.16;77.80;100943.75;5027440;28;20041;-76
2021/10/31 00:51:15;;;;;;;34.22;15.07;;;;;;;6.09;78.31;100931.50;5024965;28;20087;-75
2021/10/31 00:53:42;;;;;;;30.85;14.85;;;;;;;6.15;77.82;100942.00;5025975;28;20045;-77
2021/10/31 00:56:09;;;;;;;29.17;15.15;;;;;;;6.00;78.17;100919.19;5014418;28;20164;-76
2021/10/31 00:58:35;;;;;;;32.83;14.60;;;;;;;5.98;77.93;100916.56;5027404;28;20044;-76
2021/10/31 01:01:01;;;;;;;29.30;14.38;;;;;;;5.97;77.81;100917.38;5028204;28;20030;-77
2021/10/31 01:03:27;;;;;;;36.08;15.60;;;;;;;6.07;77.89;100935.78;5024911;28;20525;-74
2021/10/31 01:06:01;;;;;;;29.52;15.10;;;;;;;5.87;77.52;100899.84;5013715;28;20048;-75
2021/10/31 01:08:39;;;;;;;29.15;13.00;;;;;;;6.09;78.39;100936.66;5027548;28;20041;-76
2021/10/31 01:11:24;;;;;;;28.88;14.30;;;;;;;6.09;78.21;100934.97;5034462;28;20056;-77
2021/10/31 01:14:20;;;;;;;27.35;13.80;;;;;;;6.09;77.95;100931.50;5031808;28;20112;-76
2021/10/31 01:16:52;;;;;;;28.08;13.63;;;;;;;6.09;77.71;100942.72;5024761;28;20050;-75
2021/10/31 01:19:34;;;;;;;;;;;;;;;6.09;77.65;100928.91;5026275;28;20103;-75
2021/10/31 01:22:13;;;;;;;23.67;10.82;;;;;;;6.08;77.61;100929.75;5026955;28;19918;-76
2021/10/31 01:24:48;;;;;;;25.40;13.43;;;;;;;6.06;77.65;100924.53;5024525;28;20042;-76
2021/10/31 01:27:29;;;;;;;25.95;12.02;;;;;;;6.05;77.38;100924.50;5020737;28;20481;-76
2021/10/31 01:29:56;;;;;;;26.48;12.35;;;;;;;6.04;77.84;100921.03;5011146;28;20068;-75
2021/10/31 01:32:21;;;;;;;23.10;12.30;;;;;;;6.02;77.46;100915.84;5025022;28;20050;-76
2021/10/31 01:35:02;;;;;;;30.88;12.95;;;;;;;5.93;77.21;100901.75;5024700;28;20673;-76
2021/10/31 01:37:47;;;;;;;26.05;12.70;;;;;;;5.98;77.00;100911.38;5026613;28;20045;-76
2021/10/31 01:40:37;;;;;;;26.20;13.02;;;;;;;5.86;76.83;100899.00;5024181;28;20208;-76
2021/10/31 01:43:24;;;;;;;36.75;14.50;;;;;;;5.93;77.23;100906.94;5025229;28;20075;-76
2021/10/31 01:45:57;;;;;;;48.25;16.30;;;;;;;5.87;77.37;100902.44;5012688;28;20533;-77
2021/10/31 01:48:46;;;;;;;46.17;16.63;;;;;;;5.90;76.77;100904.25;5029815;28;20068;-77
2021/10/31 01:51:21;;;;;;;47.67;17.10;;;;;;;5.77;77.24;100883.22;5010891;28;20030;-76
2021/10/31 01:54:03;;;;;;;43.45;14.98;;;;;;;5.79;77.18;100885.88;5030643;28;20049;-75
2021/10/31 01:56:33;;;;;;;34.92;13.95;;;;;;;5.88;77.23;100902.50;5030662;28;20056;-76
2021/10/31 01:59:10;;;;;;;40.90;15.30;;;;;;;5.88;77.17;100904.19;5012940;28;20176;-76
2021/10/31 02:01:41;;;;;;;34.75;15.57;;;;;;;5.85;76.73;100899.81;5025630;28;20041;-76
2021/10/31 02:04:09;;;;;;;32.40;13.77;;;;;;;5.71;77.33;100877.91;5027196;28;20068;-75
2021/10/31 02:06:38;;;;;;;31.45;13.65;;;;;;;5.80;77.21;100905.69;5004029;28;20068;-76
2021/10/31 02:09:05;;;;;;;29.20;12.68;;;;;;;5.83;77.11;100917.00;5024807;28;20040;-76
2021/10/31 02:11:35;;;;;;;31.73;13.57;;;;;;;5.82;77.17;100901.47;5026776;28;20460;-76
2021/10/31 02:14:02;;;;;;;31.42;13.80;;;;;;;5.84;77.29;100905.81;5025705;28;20119;-76
2021/10/31 02:16:29;;;;;;;30.10;13.30;;;;;;;5.82;77.03;100904.03;5024631;28;20045;-77
2021/10/31 02:19:02;;;;;;;31.52;12.77;;;;;;;5.78;76.67;100897.91;5026069;28;20064;-76
2021/10/31 02:21:31;;;;;;;29.90;14.02;;;;;;;5.82;76.76;100898.88;5021653;28;20455;-75
2021/10/31 02:23:59;;;;;;;29.27;12.77;;;;;;;5.81;76.67;100902.28;5028957;28;20041;-76
2021/10/31 02:26:25;;;;;;;26.75;12.50;;;;;;;5.79;76.96;100893.63;5027458;28;20101;-77
2021/10/31 02:28:59;;;;;;;22.17;11.85;;;;;;;5.76;76.66;100896.13;5030021;28;20116;-76
2021/10/31 02:31:26;;;;;;;25.23;12.68;;;;;;;5.72;76.60;100902.91;5007896;28;20201;-75
2021/10/31 02:33:52;;;;;;;24.88;13.00;;;;;;;5.55;76.74;100871.44;5026271;28;20033;-77
2021/10/31 02:36:18;;;;;;;23.55;11.82;;;;;;;5.62;77.02;100900.88;5025843;28;20041;-76
2021/10/31 02:38:44;;;;;;;22.27;12.10;;;;;;;5.56;76.63;100888.66;5021760;28;20040;-75
2021/10/31 02:41:11;;;;;;;21.67;12.20;;;;;;;5.59;77.20;100896.50;4995037;28;20034;-75
2021/10/31 02:43:37;;;;;;;23.98;12.13;;;;;;;5.53;76.85;100884.28;5022563;28;20103;-77
2021/10/31 02:46:04;;;;;;;23.40;11.68;;;;;;;5.56;76.92;100893.84;5022858;28;20048;-76
2021/10/31 02:48:31;;;;;;;21.65;10.70;;;;;;;5.50;76.85;100884.22;5013908;28;20688;-75
2021/10/31 02:51:07;;;;;;;23.60;12.18;;;;;;;5.45;76.25;100878.03;5039633;28;20026;-75
2021/10/31 02:53:53;;;;;;;21.88;12.15;;;;;;;5.49;76.67;100879.00;5009145;28;20048;-76
2021/10/31 02:56:25;;;;;;;24.88;12.15;;;;;;;5.49;76.66;100885.03;5029232;28;20046;-77
2021/10/31 02:59:13;;;;;;;23.33;12.52;;;;;;;5.45;76.86;100888.34;5008016;28;20047;-75
2021/10/31 03:01:40;;;;;;;21.98;11.60;;;;;;;5.28;76.43;100847.44;5030166;28;20065;-76
2021/10/31 03:04:07;;;;;;;21.42;12.00;;;;;;;5.40;76.35;100870.16;5022328;28;20100;-76
2021/10/31 03:06:34;;;;;;;20.83;10.88;;;;;;;5.33;76.72;100857.00;5022379;28;21118;-75
2021/10/31 03:08:59;;;;;;;23.05;11.85;;;;;;;5.26;76.46;100856.84;5023502;28;20037;-75
2021/10/31 03:11:26;;;;;;;22.42;12.10;;;;;;;5.31;76.35;100861.25;5012760;28;20234;-76
2021/10/31 03:13:53;;;;;;;22.33;11.10;;;;;;;5.38;76.92;100871.81;5028614;28;20053;-76
2021/10/31 03:16:18;;;;;;;21.40;10.48;;;;;;;5.32;76.65;100863.00;5029943;28;20046;-76
2021/10/31 03:18:44;;;;;;;23.13;10.85;;;;;;;5.34;76.39;100856.16;5030304;28;20086;-75
2021/10/31 03:21:10;;;;;;;21.05;10.85;;;;;;;5.41;76.54;100866.72;5023384;28;20041;-75
2021/10/31 03:23:39;;;;;;;19.02;10.50;;;;;;;5.41;76.51;100864.13;5023446;28;20099;-76
2021/10/31 03:26:05;;;;;;;19.13;10.55;;;;;;;5.31;76.49;100843.16;5026077;28;20536;-76
2021/10/31 03:28:31;;;;;;;18.85;10.75;;;;;;;5.28;76.38;100844.88;5021286;28;20045;-77
2021/10/31 03:30:57;;;;;;;19.15;10.40;;;;;;;5.42;76.57;100859.88;5022698;28;20100;-74
2021/10/31 03:33:23;;;;;;;19.95;10.27;;;;;;;5.38;77.01;100852.84;5027145;28;20049;-75
2021/10/31 03:35:51;;;;;;;20.98;10.60;;;;;;;5.43;76.58;100866.78;5029617;28;20135;-76
2021/10/31 03:38:19;;;;;;;23.08;10.98;;;;;;;5.40;76.38;100857.25;5029556;28;20575;-76
2021/10/31 03:40:46;;;;;;;18.85;10.43;;;;;;;5.24;76.00;100827.53;5025763;28;20035;-77
2021/10/31 03:43:12;;;;;;;20.95;10.73;;;;;;;5.33;76.90;100855.31;5032455;28;20107;-75
2021/10/31 03:45:41;;;;;;;21.13;11.30;;;;;;;5.33;76.08;100857.00;5026629;28;20041;-76
2021/10/31 03:48:06;;;;;;;21.45;11.48;;;;;;;5.27;76.42;100857.72;5030792;28;20047;-77
2021/10/31 03:50:32;;;;;;;19.38;10.68;;;;;;;5.20;76.82;100842.84;5028563;28;20045;-75
2021/10/31 03:52:59;;;;;;;16.92;10.23;;;;;;;5.12;76.47;100834.88;5028559;28;20496;-77
2021/10/31 03:55:25;;;;;;;20.90;10.75;;;;;;;5.20;76.61;100846.31;5013712;28;20075;-75
2021/10/31 03:57:50;;;;;;;20.15;11.20;;;;;;;5.18;76.93;100854.88;5031961;28;20037;-75
2021/10/31 04:00:16;;;;;;;20.73;10.90;;;;;;;4.85;76.30;100794.56;5026282;28;20095;-76
2021/10/31 04:02:43;;;;;;;22.77;10.98;;;;;;;5.11;76.79;100843.47;5028819;28;20045;-75
2021/10/31 04:05:11;;;;;;;26.42;11.63;;;;;;;5.12;76.36;100848.69;5025302;28;20081;-76
2021/10/31 04:07:37;;;;;;;25.77;11.98;;;;;;;5.06;76.26;100837.31;5028459;28;20128;-74
2021/10/31 04:10:05;;;;;;;26.00;11.93;;;;;;;4.95;76.30;100827.53;5011993;28;20555;-77
2021/10/31 04:12:31;;;;;;;22.38;11.70;;;;;;;4.96;76.19;100834.44;5026082;28;20095;-75
2021/10/31 04:14:56;;;;;;;24.15;11.45;;;;;;;5.01;76.10;100838.88;5027015;28;20828;-76
2021/10/31 04:17:22;;;;;;;22.88;11.95;;;;;;;5.01;76.59;100839.72;5029062;28;20092;-77
2021/10/31 04:19:48;;;;;;;23.10;10.90;;;;;;;5.05;76.35;100844.16;5025692;28;20361;-76
2021/10/31 04:22:14;;;;;;;23.42;11.85;;;;;;;5.07;76.11;100844.22;5013771;28;20168;-75
2021/10/31 04:24:40;;;;;;;23.50;11.23;;;;;;;5.02;76.26;100836.31;5027997;28;20081;-77
2021/10/31 04:27:06;;;;;;;23.45;11.40;;;;;;;5.04;76.26;100834.66;5027256;28;20041;-76
2021/10/31 04:29:33;;;;;;;23.38;11.27;;;;;;;4.95;76.83;100822.38;5031273;28;20045;-76
2021/10/31 04:31:59;;;;;;;22.23;10.63;;;;;;;4.88;76.04;100810.09;5026068;28;20051;-75
2021/10/31 04:34:25;;;;;;;25.50;11.55;;;;;;;5.06;76.01;100840.75;5030403;28;20126;-76
2021/10/31 04:36:51;;;;;;;27.70;11.30;;;;;;;5.00;75.55;100824.22;5029824;28;20532;-76
2021/10/31 04:39:18;;;;;;;24.42;11.43;;;;;;;5.11;76.27;100838.31;5026163;28;20043;-77
2021/10/31 04:41:46;;;;;;;28.40;11.25;;;;;;;5.09;76.23;100837.38;5011545;28;20067;-76
2021/10/31 04:44:13;;;;;;;24.23;11.32;;;;;;;5.19;75.97;100821.34;5027484;28;20041;-77
2021/10/31 04:46:39;;;;;;;21.63;11.40;;;;;;;5.68;76.11;100821.88;5027050;28;20037;-76
2021/10/31 04:49:05;;;;;;;22.40;10.35;;;;;;;6.21;75.59;100825.88;5027518;28;20040;-76
2021/10/31 04:51:31;;;;;;;18.35;9.55;;;;;;;6.74;75.58;100811.59;5025187;28;20781;-76
2021/10/31 04:53:57;;;;;;;21.05;9.70;;;;;;;7.38;75.18;100824.22;5025742;28;20045;-77
2021/10/31 04:56:23;;;;;;;18.27;8.95;;;;;;;7.88;74.42;100819.97;5026516;28;21159;-77
2021/10/31 04:58:50;;;;;;;15.05;8.45;;;;;;;8.39;73.88;100824.31;5024351;28;20375;-76
2021/10/31 05:01:16;;;;;;;17.92;9.75;;;;;;;8.87;72.93;100817.31;5029158;28;20037;-76
2021/10/31 05:03:46;;;;;;;17.67;8.93;;;;;;;9.44;72.77;100811.09;5026568;28;20046;-76
2021/10/31 05:06:26;;;;;;;18.85;10.00;;;;;;;9.86;70.51;100803.78;5028164;28;20045;-76
2021/10/31 05:08:55;;;;;;;15.73;9.38;;;;;;;10.33;70.38;100784.25;5012994;28;20132;-77
2021/10/31 05:11:21;;;;;;;17.63;8.93;;;;;;;11.14;70.00;100815.16;5022435;28;20148;-76
2021/10/31 05:13:48;;;;;;;19.67;9.13;;;;;;;11.77;68.67;100812.81;5025406;28;20043;-75
2021/10/31 05:16:16;;;;;;;18.17;9.45;;;;;;;12.17;67.29;100787.66;5011856;28;20076;-76
2021/10/31 05:18:42;;;;;;;15.80;9.32;;;;;;;12.76;65.47;100797.19;5027721;28;20042;-77
2021/10/31 05:21:08;;;;;;;14.68;8.57;;;;;;;13.35;65.07;100803.09;5027826;28;20445;-77
2021/10/31 05:23:34;;;;;;;19.10;9.07;;;;;;;13.90;63.77;100776.66;5017320;28;20040;-76
2021/10/31 05:26:00;;;;;;;14.90;8.68;;;;;;;14.83;61.68;100799.47;5031658;28;20120;-77
2021/10/31 05:28:26;;;;;;;14.70;8.68;;;;;;;15.00;59.75;100768.69;5014090;28;20160;-76
2021/10/31 05:30:55;;;;;;;15.63;8.73;;;;;;;15.43;57.68;100783.03;5013924;28;20049;-77
2021/10/31 05:33:25;;;;;;;13.20;8.43;;;;;;;15.87;56.78;100772.78;5024837;28;20452;-76
2021/10/31 05:35:58;;;;;;;15.40;8.40;;;;;;;16.35;54.10;100751.00;5023234;28;20128;-77
2021/10/31 05:38:29;;;;;;;16.42;9.45;;;;;;;16.81;54.24;100751.91;5026008;28;20049;-77
2021/10/31 05:41:13;;;;;;;13.68;8.35;;;;;;;17.35;52.27;100770.13;5029839;28;20475;-77
2021/10/31 05:43:39;;;;;;;13.25;8.73;;;;;;;17.77;51.02;100767.44;5029455;28;20082;-78
2021/10/31 05:46:05;;;;;;;14.70;8.57;;;;;;;18.24;48.44;100751.38;5013795;28;20076;-76
2021/10/31 05:48:31;;;;;;;13.45;8.95;;;;;;;18.56;46.75;100751.44;4999708;28;20928;-77
2021/10/31 05:50:59;;;;;;;13.38;8.70;;;;;;;18.77;47.12;100769.31;5020312;28;20136;-80
2021/10/31 05:53:25;;;;;;;13.20;8.77;;;;;;;19.42;44.77;100769.25;5024094;28;20068;-76
2021/10/31 05:55:57;;;;;;;13.75;9.10;;;;;;;19.70;44.21;100742.84;4995267;28;20771;-79
2021/10/31 05:58:34;;;;;;;12.68;9.25;;;;;;;20.04;41.63;100735.63;5043150;28;20045;-79
2021/10/31 06:01:12;;;;;;;13.13;9.07;;;;;;;20.16;41.73;100764.31;5004907;28;20090;-77
2021/10/31 06:03:39;;;;;;;15.90;9.40;;;;;;;20.50;40.42;100742.91;5027711;28;20160;-77
2021/10/31 06:06:05;;;;;;;12.45;8.68;;;;;;;20.90;40.34;100746.78;5013290;28;20118;-78
2021/10/31 06:08:36;;;;;;;11.07;8.25;;;;;;;21.13;39.00;100737.97;5026053;28;20138;-76
2021/10/31 06:11:05;;;;;;;12.43;8.73;;;;;;;21.17;37.25;100715.78;5011979;28;20045;-78
2021/10/31 06:13:31;;;;;;;13.52;8.50;;;;;;;20.94;37.31;100734.31;5026944;28;20162;-78
2021/10/31 06:15:57;;;;;;;12.27;8.27;;;;;;;21.14;37.10;100741.47;5030197;28;20049;-79
2021/10/31 06:18:23;;;;;;;13.02;9.13;;;;;;;21.32;36.20;100739.91;5012873;28;20131;-76
2021/10/31 06:20:49;;;;;;;11.70;8.65;;;;;;;22.05;35.63;100742.31;5022603;28;20053;-75
2021/10/31 06:23:15;;;;;;;13.60;8.73;;;;;;;22.69;34.50;100737.84;5026461;28;20509;-78
2021/10/31 06:25:41;;;;;;;13.68;8.40;;;;;;;23.37;32.95;100728.59;5027167;28;20041;-78
2021/10/31 06:28:08;;;;;;;14.07;8.80;;;;;;;23.41;32.64;100700.94;5025454;28;20402;-76
2021/10/31 06:30:34;;;;;;;15.15;8.30;;;;;;;23.97;31.79;100715.03;5026569;28;20050;-78
2021/10/31 06:33:02;;;;;;;10.95;8.55;;;;;;;24.42;30.27;100727.81;5026315;28;20072;-77
2021/10/31 06:35:28;;;;;;;12.02;9.07;;;;;;;24.39;30.69;100720.00;5027182;28;20502;-79
2021/10/31 06:37:54;;;;;;;12.85;8.98;;;;;;;24.24;30.24;100713.72;5026164;28;20118;-80
2021/10/31 06:40:20;;;;;;;10.68;8.70;;;;;;;24.40;30.11;100713.75;5025762;28;20049;-77
2021/10/31 06:42:46;;;;;;;13.63;8.75;;;;;;;24.77;29.70;100715.34;5032404;28;20406;-78
2021/10/31 06:45:11;;;;;;;11.10;8.23;;;;;;;24.72;28.78;100705.91;5032921;28;20134;-76
2021/10/31 06:47:38;;;;;;;11.13;9.00;;;;;;;24.77;29.57;100717.16;5031642;28;20068;-78
2021/10/31 06:50:04;;;;;;;13.13;8.73;;;;;;;25.41;28.48;100706.53;5014414;28;20042;-79
2021/10/31 06:52:30;;;;;;;13.60;9.10;;;;;;;25.14;28.23;100699.16;5036514;28;20037;-78
2021/10/31 06:54:57;;;;;;;10.80;8.40;;;;;;;25.35;27.95;100730.84;5015219;28;20115;-78
2021/10/31 06:57:23;;;;;;;11.20;8.88;;;;;;;25.75;28.10;100704.59;5034001;28;20014;-80
2021/10/31 06:59:48;;;;;;;13.50;8.38;;;;;;;26.60;26.64;100746.72;5031975;28;20131;-80
2021/10/31 07:02:32;;;;;;;11.00;8.68;;;;;;;26.36;26.41;100731.28;5016541;28;20034;-78
2021/10/31 07:04:58;;;;;;;10.65;8.20;;;;;;;26.00;27.18;100733.38;5037785;28;20049;-79
2021/10/31 07:07:24;;;;;;;12.60;8.38;;;;;;;25.51;26.31;100731.72;5034248;28;20045;-79
2021/10/31 07:09:49;;;;;;;10.07;8.18;;;;;;;26.07;26.85;100739.19;5037793;28;20037;-77
2021/10/31 07:12:18;;;;;;;10.25;8.60;;;;;;;26.90;26.14;100735.13;5040743;28;20068;-82
2021/10/31 07:14:44;;;;;;;12.55;8.98;;;;;;;26.96;25.14;100733.88;5019856;28;20413;-76
2021/10/31 07:17:10;;;;;;;9.63;8.45;;;;;;;26.44;25.09;100754.81;5023104;28;20076;-77
2021/10/31 07:19:55;;;;;;;11.20;8.45;;;;;;;26.24;25.39;100743.56;5032768;28;20049;-78
2021/10/31 07:22:21;;;;;;;12.75;8.18;;;;;;;26.24;25.45;100724.00;5038639;28;20037;-80
2021/10/31 07:24:48;;;;;;;12.95;8.02;;;;;;;26.27;24.47;100751.34;5021365;28;20049;-77
2021/10/31 07:27:15;;;;;;;10.35;8.35;;;;;;;25.92;26.25;100753.44;5009534;28;20223;-81
2021/10/31 07:29:41;;;;;;;13.10;8.48;;;;;;;26.25;25.77;100752.41;5040297;28;20033;-82
2021/10/31 07:32:23;;;;;;;12.88;8.55;;;;;;;25.79;25.21;100710.63;5013834;28;20160;-78
2021/10/31 07:34:52;;;;;;;13.98;9.00;;;;;;;25.87;25.52;100751.00;5034674;28;20111;-76
2021/10/31 07:37:21;;;;;;;14.25;8.32;;;;;;;25.19;24.75;100765.47;5037765;28;20043;-78
2021/10/31 07:39:55;;;;;;;14.60;9.55;;;;;;;24.85;25.52;100730.88;5034293;28;20033;-81
2021/10/31 07:42:28;;;;;;;10.30;8.30;;;;;;;25.24;25.13;100753.63;5038330;28;20052;-80
2021/10/31 07:44:58;;;;;;;12.70;8.40;;;;;;;25.60;25.71;100722.34;5017210;28;20041;-83
2021/10/31 07:47:27;;;;;;;16.55;8.93;;;;;;;27.15;24.63;100753.09;5029091;28;20381;-80
2021/10/31 07:49:53;;;;;;;15.18;8.73;;;;;;;27.75;23.58;100764.44;5013574;28;20037;-82
2021/10/31 07:52:22;;;;;;;11.23;8.18;;;;;;;27.70;22.97;100747.84;5027947;28;20044;-79
2021/10/31 07:54:49;;;;;;;13.32;9.27;;;;;;;28.03;23.45;100751.03;5029411;28;20051;-80
2021/10/31 07:57:20;;;;;;;10.52;8.20;;;;;;;28.28;22.30;100754.75;5028749;28;20061;-81
2021/10/31 07:59:51;;;;;;;15.32;9.98;;;;;;;28.43;22.41;100742.97;5037572;28;21160;-82
2021/10/31 08:02:20;;;;;;;13.07;8.63;;;;;;;28.22;22.68;100756.03;5029053;28;20191;-83
2021/10/31 08:04:49;;;;;;;15.82;8.18;;;;;;;28.46;22.20;100736.59;4997427;28;20086;-81
2021/10/31 08:07:23;;;;;;;12.00;8.32;;;;;;;28.67;21.75;100751.13;5032648;28;20075;-80
2021/10/31 08:09:58;;;;;;;12.25;8.32;;;;;;;28.63;22.29;100746.09;5015623;28;20034;-80
2021/10/31 08:13:06;;;;;;;11.32;8.05;;;;;;;27.99;22.04;100712.97;5031024;28;20041;-77
2021/10/31 08:15:23;;;;;;;12.73;8.70;;;;;;;25.15;22.92;100734.66;5029461;28;20409;-77
2021/10/31 08:17:49;;;;;;;12.57;8.75;;;;;;;23.56;24.87;100733.84;5032660;28;20523;-79
2021/10/31 08:20:15;;;;;;;17.45;9.23;;;;;;;21.68;26.36;100771.19;5017097;28;20072;-79
2021/10/31 08:22:40;;;;;;;15.63;9.55;;;;;;;19.75;28.06;100760.34;5030642;28;20056;-76
2021/10/31 08:25:07;;;;;;;12.80;9.02;;;;;;;19.06;29.52;100791.41;5029575;28;20037;-79
2021/10/31 08:27:33;;;;;;;13.32;8.65;;;;;;;18.32;30.88;100780.16;5032693;28;20063;-76
2021/10/31 08:30:07;;;;;;;15.50;9.38;;;;;;;17.40;31.97;100781.44;5027556;28;20049;-78
2021/10/31 08:32:45;;;;;;;14.82;9.57;;;;;;;16.45;33.43;100785.84;5019404;28;20483;-82
2021/10/31 08:35:17;;;;;;;18.55;10.05;;;;;;;15.85;34.93;100776.31;5002008;28;20045;-83
2021/10/31 08:37:44;;;;;;;15.82;9.63;;;;;;;15.29;35.56;100798.94;5028221;28;20060;-80
2021/10/31 08:40:14;;;;;;;16.00;9.48;;;;;;;15.10;36.82;100760.72;5028889;28;20037;-78
2021/10/31 08:43:10;;;;;;;16.35;8.80;;;;;;;16.93;36.55;100784.97;5030871;28;20114;-82
2021/10/31 08:45:41;;;;;;;13.80;9.20;;;;;;;17.09;34.61;100780.31;5045913;28;20044;-79
2021/10/31 08:48:15;;;;;;;15.98;9.85;;;;;;;16.51;35.29;100804.13;5029992;28;20046;-79
2021/10/31 08:50:42;;;;;;;17.40;9.93;;;;;;;16.02;35.54;100752.44;5035698;28;20037;-77
2021/10/31 08:53:29;;;;;;;19.02;9.95;;;;;;;15.59;35.85;100801.16;5034873;28;20041;-76
2021/10/31 08:56:05;;;;;;;14.95;8.43;;;;;;;13.79;37.33;100743.59;5032267;28;20048;-80
2021/10/31 08:58:44;;;;;;;19.20;10.07;;;;;;;12.92;39.27;100748.38;5018588;28;20397;-79
2021/10/31 09:01:15;;;;;;;17.27;9.57;;;;;;;12.53;40.36;100774.59;5017615;28;20133;-78
2021/10/31 09:03:47;;;;;;;18.17;9.68;;;;;;;12.26;41.57;100794.59;5032602;28;20041;-78
2021/10/31 09:06:14;;;;;;;20.02;9.45;;;;;;;12.16;42.48;100788.53;5031359;28;20041;-77
2021/10/31 09:08:40;;;;;;;16.13;8.55;;;;;;;12.40;42.95;100806.81;5029403;28;20130;-81
2021/10/31 09:11:06;;;;;;;20.70;9.05;;;;;;;12.35;43.15;100794.63;5034824;28;20056;-80
2021/10/31 09:13:32;;;;;;;15.65;8.57;;;;;;;12.43;42.86;100788.53;5031730;28;20144;-82
2021/10/31 09:16:02;;;;;;;13.85;8.52;;;;;;;12.51;43.02;100794.59;5033061;28;20474;-82
2021/10/31 09:18:28;;;;;;;16.20;8.98;;;;;;;13.07;43.52;100794.50;5015647;28;20046;-79
2021/10/31 09:20:57;;;;;;;12.65;7.65;;;;;;;13.95;42.87;100770.50;5027826;28;20037;-81
2021/10/31 09:23:24;;;;;;;19.05;8.40;;;;;;;15.38;40.22;100783.94;5021316;28;20044;-81
2021/10/31 09:25:50;;;;;;;16.10;8.48;;;;;;;16.71;40.07;100774.00;5020068;28;20545;-80
2021/10/31 09:28:16;;;;;;;18.20;8.85;;;;;;;18.03;37.33;100758.94;5032506;28;20045;-79
2021/10/31 09:30:46;;;;;;;23.63;8.75;;;;;;;18.79;36.22;100753.47;5036783;28;20057;-80
2021/10/31 09:33:18;;;;;;;15.02;8.60;;;;;;;18.80;34.70;100749.91;5035660;28;20068;-81
2021/10/31 09:35:49;;;;;;;15.55;8.98;;;;;;;18.09;34.15;100757.06;5039777;28;20039;-82
2021/10/31 09:38:24;;;;;;;17.25;9.50;;;;;;;16.67;34.94;100778.44;5033716;28;20045;-80
2021/10/31 09:40:52;;;;;;;15.20;9.15;;;;;;;15.25;37.07;100788.47;5028923;28;20037;-82
2021/10/31 09:43:23;;;;;;;14.82;9.30;;;;;;;14.13;38.67;100793.06;5028160;28;20046;-81
2021/10/31 09:45:52;;;;;;;18.95;9.95;;;;;;;13.41;39.97;100791.75;5030857;28;20033;-75
2021/10/31 09:48:18;;;;;;;20.83;9.95;;;;;;;14.25;41.41;100789.47;4998294;28;20506;-77
2021/10/31 09:50:55;;;;;;;17.58;9.18;;;;;;;13.98;39.68;100775.72;5024940;28;20132;-79
2021/10/31 09:53:21;;;;;;;22.92;9.98;;;;;;;12.95;41.26;100730.09;5011974;28;20102;-81
2021/10/31 09:55:50;;;;;;;25.75;11.85;;;;;;;12.68;41.49;100749.34;5014810;28;20064;-78
2021/10/31 09:58:31;;;;;;;19.23;9.82;;;;;;;11.81;42.76;100710.22;5026675;28;20041;-80
2021/10/31 10:01:09;;;;;;;15.57;9.55;;;;;;;11.81;43.66;100801.47;5013923;28;20530;-80
2021/10/31 10:03:38;;;;;;;17.33;10.05;;;;;;;11.62;44.81;100798.00;5048887;28;20037;-80
2021/10/31 10:06:16;;;;;;;20.70;9.90;;;;;;;11.64;45.13;100799.72;5026845;28;20103;-77
2021/10/31 10:08:58;;;;;;;23.13;10.77;;;;;;;11.44;44.98;100721.50;4997739;28;20527;-79
2021/10/31 10:12:00;;;;;;;22.45;10.02;;;;;;;11.74;44.73;100731.09;5026067;28;20049;-79
2021/10/31 10:14:28;;;;;;;20.83;9.68;;;;;;;11.77;44.62;100756.28;5030162;28;20073;-78
2021/10/31 10:17:20;;;;;;;21.38;9.40;;;;;;;11.68;45.40;100792.78;5027830;28;20060;-78
2021/10/31 10:19:48;;;;;;;;;;;;;;;11.52;46.01;100790.13;5014503;28;20057;-80
2021/10/31 10:22:23;;;;;;;16.40;9.02;;;;;;;10.77;46.00;100683.94;5036155;28;19917;-81
2021/10/31 10:25:01;;;;;;;20.15;9.52;;;;;;;11.24;46.26;100787.44;5026576;28;20135;-82
2021/10/31 10:27:59;;;;;;;16.95;9.35;;;;;;;10.09;46.43;100595.94;5032906;28;20068;-85
2021/10/31 10:30:25;;;;;;;23.27;9.82;;;;;;;10.96;46.70;100762.97;5026376;28;20053;-80
2021/10/31 10:32:59;;;;;;;22.98;10.20;;;;;;;10.79;47.11;100753.34;5014678;28;20064;-81
2021/10/31 10:35:29;;;;;;;19.50;8.98;;;;;;;10.61;47.29;100751.50;5027330;28;20102;-81
2021/10/31 10:37:56;;;;;;;25.08;10.20;;;;;;;10.46;47.66;100775.72;5031307;28;20046;-84
2021/10/31 10:40:26;;;;;;;23.95;9.32;;;;;;;10.20;48.41;100784.16;5023364;28;20132;-83
2021/10/31 10:43:00;;;;;;;20.08;9.55;;;;;;;10.02;49.00;100768.41;5027335;28;20040;-83
2021/10/31 10:45:28;;;;;;;24.38;9.98;;;;;;;9.31;49.64;100652.53;5042431;28;20041;-84
2021/10/31 10:47:59;;;;;;;17.35;8.18;;;;;;;9.24;49.39;100642.06;5033101;28;20112;-81
2021/10/31 10:50:28;;;;;;;18.90;8.73;;;;;;;9.88;49.74;100755.28;5020173;28;20040;-79
2021/10/31 10:52:56;;;;;;;21.17;8.75;;;;;;;9.14;49.95;100634.16;5035236;28;20049;-81
2021/10/31 10:55:23;;;;;;;19.92;9.07;;;;;;;9.75;49.98;100741.28;5035079;28;20068;-79
2021/10/31 10:58:11;;;;;;;20.08;9.32;;;;;;;9.78;50.59;100738.72;5031970;28;20072;-79
2021/10/31 11:00:49;;;;;;;16.75;7.32;;;;;;;9.68;50.43;100736.88;4998595;28;20052;-78
2021/10/31 11:03:28;;;;;;;20.00;8.27;;;;;;;9.45;50.92;100714.13;5034100;28;20065;-76
2021/10/31 11:06:04;;;;;;;20.63;8.23;;;;;;;9.38;50.52;100705.41;5032325;28;20041;-77
2021/10/31 11:08:30;;;;;;;18.67;8.43;;;;;;;9.42;51.16;100743.56;5015394;28;20045;-78
2021/10/31 11:11:00;;;;;;;20.92;8.38;;;;;;;9.20;51.58;100713.84;5031723;28;20373;-76
2021/10/31 11:13:44;;;;;;;17.38;8.40;;;;;;;9.19;51.89;100722.50;5034310;28;20041;-77
2021/10/31 11:16:13;;;;;;;17.42;8.65;;;;;;;9.12;52.13;100716.38;5016421;28;20066;-79
2021/10/31 11:18:43;;;;;;;17.50;8.32;;;;;;;8.91;52.20;100695.34;5041376;28;20047;-80
2021/10/31 11:21:12;;;;;;;17.10;7.97;;;;;;;8.76;52.25;100675.25;5023819;28;20096;-80
2021/10/31 11:23:39;;;;;;;17.73;8.00;;;;;;;8.58;52.58;100658.63;5035723;28;20046;-76
2021/10/31 11:26:16;;;;;;;17.75;7.20;;;;;;;8.87;52.67;100721.25;5001427;28;20034;-78
2021/10/31 11:28:42;;;;;;;24.50;8.15;;;;;;;8.82;52.90;100719.47;5026221;28;20102;-76
2021/10/31 11:31:16;;;;;;;17.73;7.63;;;;;;;8.42;53.29;100668.75;5033685;28;20188;-78
2021/10/31 11:33:51;;;;;;;15.07;7.35;;;;;;;8.76;53.22;100721.97;5034805;28;20038;-78